Time;durP1;ratioP1;P1;durP2;ratioP2;P2;SDS_P1;SDS_P2;PMS_P1;PMS_P2;Temp;Humidity;BMP_temperature;BMP_pressure;BME280_temperature;BME280_humidity;BME280_pressure;Samples;Min_cycle;Max_cycle;Signal;HPM_P1;HPM_P2
2021/12/20 00:02:21;;;;;;;37.28;22.15;;;;;;;-1.37;100.00;100799.47;4992535;28;20043;-79
2021/12/20 00:04:52;;;;;;;43.90;23.75;;;;;;;-1.31;100.00;100797.88;4993361;28;20493;-80
2021/12/20 00:07:20;;;;;;;39.60;22.55;;;;;;;-1.25;100.00;100780.13;4975175;28;20047;-80
2021/12/20 00:09:48;;;;;;;38.33;22.20;;;;;;;-1.33;100.00;100777.63;4992382;28;20046;-79
2021/12/20 00:12:16;;;;;;;46.53;24.23;;;;;;;-1.31;100.00;100775.56;4975395;28;20070;-79
2021/12/20 00:14:44;;;;;;;40.88;24.55;;;;;;;-1.26;100.00;100768.56;4992714;28;20043;-79
2021/12/20 00:17:12;;;;;;;40.95;23.95;;;;;;;-1.22;100.00;100777.06;4975750;28;20073;-80
2021/12/20 00:19:40;;;;;;;44.65;24.15;;;;;;;-1.33;100.00;100761.50;4975502;28;20046;-80
2021/12/20 00:22:08;;;;;;;41.70;22.23;;;;;;;-1.44;100.00;100752.94;4993208;28;20046;-79
2021/12/20 00:24:38;;;;;;;39.25;22.17;;;;;;;-1.44;100.00;100765.53;4993265;28;20058;-79
2021/12/20 00:27:07;;;;;;;43.42;23.13;;;;;;;-1.47;100.00;100761.38;4979326;28;20382;-79
2021/12/20 00:29:36;;;;;;;37.83;22.20;;;;;;;-1.54;100.00;100745.25;4995325;28;20050;-80
2021/12/20 00:32:04;;;;;;;44.15;23.35;;;;;;;-1.59;100.00;100741.47;4995701;28;20055;-79
2021/12/20 00:34:33;;;;;;;35.50;21.98;;;;;;;-1.63;100.00;100736.50;4996567;28;20046;-79
2021/12/20 00:37:05;;;;;;;41.10;22.27;;;;;;;-1.62;100.00;100743.53;4985523;28;20051;-80
2021/12/20 00:42:20;;;;;;;38.40;21.77;;;;;;;-1.60;100.00;100746.03;4996323;28;20371;-79
2021/12/20 00:44:48;;;;;;;38.05;20.58;;;;;;;-1.65;100.00;100730.50;4962800;28;20390;-79
2021/12/20 00:47:17;;;;;;;39.40;21.38;;;;;;;-1.46;100.00;100740.75;4978471;28;20050;-79
2021/12/20 00:49:45;;;;;;;40.85;21.90;;;;;;;-1.25;100.00;100729.13;4986007;28;20073;-79
2021/12/20 00:52:13;;;;;;;44.40;22.38;;;;;;;-1.18;100.00;100727.28;4967233;28;20058;-79
2021/12/20 00:54:41;;;;;;;37.78;22.38;;;;;;;-1.22;100.00;100726.03;4978491;28;20050;-79
2021/12/20 00:57:09;;;;;;;39.17;21.23;;;;;;;-1.26;100.00;100730.16;4976095;28;20517;-79
2021/12/20 00:59:37;;;;;;;34.95;20.65;;;;;;;-1.25;100.00;100726.44;4996450;28;20042;-80
2021/12/20 01:02:06;;;;;;;36.83;21.42;;;;;;;-1.25;100.00;100726.44;4978924;28;20051;-78
2021/12/20 01:04:34;;;;;;;37.28;20.55;;;;;;;-1.31;100.00;100711.94;4994554;28;20046;-79
2021/12/20 01:07:02;;;;;;;38.17;20.25;;;;;;;-1.28;100.00;100721.47;4978821;28;20049;-79
2021/12/20 01:09:30;;;;;;;37.25;21.02;;;;;;;-1.32;100.00;100704.91;4978357;28;20405;-79
2021/12/20 01:12:03;;;;;;;41.63;20.05;;;;;;;-1.29;100.00;100719.78;4977940;28;20405;-79
2021/12/20 01:14:34;;;;;;;35.58;20.27;;;;;;;-1.26;100.00;100706.78;4995286;28;20493;-79
2021/12/20 01:17:05;;;;;;;34.35;19.42;;;;;;;-1.17;100.00;100701.28;4994756;28;20057;-79
2021/12/20 01:19:35;;;;;;;33.08;18.40;;;;;;;-1.16;100.00;100703.78;4994736;28;20046;-79
2021/12/20 01:22:05;;;;;;;36.22;19.10;;;;;;;-1.23;100.00;100702.88;4994769;28;20057;-80
2021/12/20 01:24:33;;;;;;;35.38;20.25;;;;;;;-1.13;100.00;100708.72;4978368;28;20065;-79
2021/12/20 01:27:02;;;;;;;30.73;17.23;;;;;;;-1.22;100.00;100704.56;4978061;28;20057;-79
2021/12/20 01:29:30;;;;;;;34.97;18.92;;;;;;;-1.14;100.00;100707.06;4978595;28;20065;-79
2021/12/20 01:31:58;;;;;;;34.42;19.83;;;;;;;-1.14;100.00;100700.84;4996013;28;20400;-79
2021/12/20 01:34:26;;;;;;;34.55;18.85;;;;;;;-1.22;100.00;100708.06;4996328;28;20047;-79
2021/12/20 01:36:55;;;;;;;32.40;19.15;;;;;;;-1.29;100.00;100703.66;4994781;28;20049;-79
2021/12/20 01:39:24;;;;;;;30.35;17.52;;;;;;;-1.27;100.00;100717.75;4995956;28;20053;-79
2021/12/20 01:41:53;;;;;;;26.48;17.08;;;;;;;-1.25;100.00;100718.38;4996125;28;20392;-80
2021/12/20 01:44:21;;;;;;;29.00;17.35;;;;;;;-1.26;100.00;100703.28;4995398;28;20469;-79
2021/12/20 01:46:50;;;;;;;30.50;17.15;;;;;;;-1.36;100.00;100693.72;4977390;28;20060;-79
2021/12/20 01:49:19;;;;;;;28.40;16.55;;;;;;;-1.30;100.00;100710.06;4993830;28;20039;-79
2021/12/20 01:52:03;;;;;;;28.55;16.70;;;;;;;-1.27;100.00;100713.19;4995822;28;20401;-79
2021/12/20 01:54:31;;;;;;;32.45;17.95;;;;;;;-1.06;100.00;100694.50;4995806;28;20053;-79
2021/12/20 01:56:59;;;;;;;33.13;18.48;;;;;;;-0.90;100.00;100677.19;4978830;28;20400;-79
2021/12/20 01:59:28;;;;;;;27.92;16.85;;;;;;;-0.92;100.00;100681.94;4978129;28;20588;-79
2021/12/20 02:01:56;;;;;;;38.85;19.77;;;;;;;-0.85;100.00;100677.44;4995453;28;20038;-79
2021/12/20 02:04:24;;;;;;;34.05;18.13;;;;;;;-0.93;100.00;100675.75;4977738;28;20066;-79
2021/12/20 02:06:52;;;;;;;35.42;18.85;;;;;;;-0.99;100.00;100682.75;4994176;28;20038;-79
2021/12/20 02:09:20;;;;;;;27.38;16.75;;;;;;;-1.09;100.00;100677.75;4977601;28;20405;-79
2021/12/20 02:11:50;;;;;;;31.10;16.83;;;;;;;-1.10;100.00;100675.25;4995177;28;20518;-79
2021/12/20 02:14:19;;;;;;;30.40;16.88;;;;;;;-1.11;100.00;100666.38;4977979;28;20058;-79
2021/12/20 02:16:47;;;;;;;32.58;16.05;;;;;;;-1.07;100.00;100669.50;4977333;28;20043;-79
2021/12/20 02:19:17;;;;;;;30.17;16.33;;;;;;;-0.88;100.00;100665.22;4995245;28;20047;-79
2021/12/20 02:21:46;;;;;;;30.63;16.75;;;;;;;-0.95;100.00;100656.31;4994116;28;20054;-79
2021/12/20 02:24:14;;;;;;;27.17;14.88;;;;;;;-1.08;100.00;100647.19;4993823;28;20050;-79
2021/12/20 02:26:43;;;;;;;31.27;15.63;;;;;;;-1.00;100.00;100661.47;4993544;28;20047;-79
2021/12/20 02:29:11;;;;;;;25.95;15.45;;;;;;;-1.15;100.00;100649.00;4980145;28;20038;-79
2021/12/20 02:37:28;;;;;;;27.17;13.90;;;;;;;-1.29;100.00;100639.22;4992524;28;20042;-79
2021/12/20 02:39:56;;;;;;;24.08;14.40;;;;;;;-1.32;100.00;100621.66;4994639;28;20402;-79
2021/12/20 02:42:30;;;;;;;24.77;13.77;;;;;;;-1.20;100.00;100629.16;4994352;28;20038;-79
2021/12/20 02:45:09;;;;;;;28.15;13.98;;;;;;;-1.25;100.00;100613.63;4994157;28;20058;-79
2021/12/20 02:47:45;;;;;;;29.05;14.00;;;;;;;-1.13;100.00;100624.66;4977413;28;20085;-79
2021/12/20 02:50:14;;;;;;;22.13;12.68;;;;;;;-1.14;100.00;100622.97;4994088;28;20049;-79
2021/12/20 02:52:43;;;;;;;25.80;14.40;;;;;;;-0.98;100.00;100624.50;4994020;28;20057;-79
2021/12/20 02:55:11;;;;;;;25.77;13.70;;;;;;;-1.02;100.00;100623.22;4994962;28;20050;-79
2021/12/20 02:57:39;;;;;;;23.55;12.65;;;;;;;-1.10;100.00;100630.44;4994267;28;20042;-79
2021/12/20 03:00:09;;;;;;;25.00;13.98;;;;;;;-1.08;100.00;100625.69;4977450;28;20440;-79
2021/12/20 03:02:39;;;;;;;24.50;13.77;;;;;;;-1.10;100.00;100634.97;4993805;28;20061;-79
2021/12/20 03:05:08;;;;;;;22.48;12.65;;;;;;;-1.05;100.00;100621.78;4970217;28;20038;-79
2021/12/20 03:07:45;;;;;;;26.08;13.63;;;;;;;-1.05;100.00;100623.63;4994005;28;20408;-79
2021/12/20 03:10:14;;;;;;;24.25;14.13;;;;;;;-0.95;100.00;100624.91;4993880;28;20073;-79
2021/12/20 03:12:42;;;;;;;24.10;13.75;;;;;;;-1.16;100.00;100607.09;4993070;28;20046;-79
2021/12/20 03:15:16;;;;;;;25.95;12.32;;;;;;;-1.17;100.00;100607.28;4992736;28;20050;-79
2021/12/20 03:17:44;;;;;;;23.05;12.35;;;;;;;-1.32;100.00;100596.69;4992060;28;20061;-79
2021/12/20 03:20:14;;;;;;;25.27;12.07;;;;;;;-1.24;100.00;100608.06;4992173;28;20050;-79
2021/12/20 03:22:43;;;;;;;21.90;12.43;;;;;;;-1.21;100.00;100590.75;4992704;28;20401;-79
2021/12/20 03:25:11;;;;;;;23.27;12.90;;;;;;;-1.22;100.00;100586.41;4992812;28;20043;-79
2021/12/20 03:27:39;;;;;;;22.65;12.32;;;;;;;-1.09;100.00;100585.59;4982137;28;20038;-79
2021/12/20 03:30:11;;;;;;;19.80;11.73;;;;;;;-1.14;100.00;100591.59;4991997;28;20074;-79
2021/12/20 03:32:39;;;;;;;20.00;12.57;;;;;;;-1.11;100.00;100576.91;4992646;28;20050;-79
2021/12/20 03:35:08;;;;;;;23.00;12.82;;;;;;;-1.11;100.00;100598.41;4992553;28;20039;-79
2021/12/20 03:37:42;;;;;;;24.42;13.50;;;;;;;-0.87;100.00;100599.69;4992580;28;20039;-79
2021/12/20 03:40:11;;;;;;;20.42;12.68;;;;;;;-0.95;100.00;100589.16;4991289;28;20054;-79
2021/12/20 03:42:45;;;;;;;23.83;12.30;;;;;;;-1.03;100.00;100579.41;4991460;28;20043;-79
2021/12/20 03:45:14;;;;;;;23.83;12.50;;;;;;;-1.06;100.00;100570.94;4991823;28;20054;-79
2021/12/20 03:47:43;;;;;;;24.73;12.32;;;;;;;-1.00;100.00;100570.13;4965182;28;20304;-79
2021/12/20 03:50:14;;;;;;;21.70;12.10;;;;;;;-1.15;100.00;100571.13;4974585;28;20054;-79
2021/12/20 03:52:42;;;;;;;23.33;13.32;;;;;;;-1.16;100.00;100574.00;4990754;28;20564;-79
2021/12/20 03:55:13;;;;;;;19.60;11.30;;;;;;;-1.31;100.00;100574.16;4974468;28;20055;-79
2021/12/20 03:57:41;;;;;;;20.45;10.98;;;;;;;-1.41;100.00;100572.66;4992274;28;20047;-78
2021/12/20 04:00:13;;;;;;;18.83;11.43;;;;;;;-1.32;100.00;100559.91;4993182;28;20057;-79
2021/12/20 04:02:44;;;;;;;23.65;11.20;;;;;;;-1.23;100.00;100576.66;4995133;28;20038;-79
2021/12/20 04:05:14;;;;;;;25.35;12.07;;;;;;;-1.08;100.00;100571.97;4979072;28;20042;-79
2021/12/20 04:07:42;;;;;;;23.63;12.57;;;;;;;-1.28;100.00;100565.72;4990540;28;20047;-79
2021/12/20 04:10:10;;;;;;;21.27;11.90;;;;;;;-1.23;100.00;100558.72;4978633;28;20057;-78
2021/12/20 04:12:38;;;;;;;24.67;12.57;;;;;;;-1.06;100.00;100558.34;4995737;28;20054;-78
2021/12/20 04:15:07;;;;;;;22.52;11.57;;;;;;;-1.17;100.00;100551.69;4974278;28;20401;-79
2021/12/20 04:17:35;;;;;;;21.15;12.50;;;;;;;-1.29;100.00;100547.94;4995744;28;20397;-79
2021/12/20 04:20:04;;;;;;;22.75;11.90;;;;;;;-1.35;100.00;100563.00;4995033;28;20047;-78
2021/12/20 04:22:32;;;;;;;23.60;12.00;;;;;;;-1.49;100.00;100537.97;4989600;28;20047;-79
2021/12/20 04:25:00;;;;;;;23.70;12.27;;;;;;;-1.42;100.00;100549.53;4978460;28;20045;-78
2021/12/20 04:27:29;;;;;;;22.25;11.57;;;;;;;-1.32;100.00;100546.47;4994804;28;20059;-78
2021/12/20 04:29:57;;;;;;;16.95;9.77;;;;;;;-1.42;100.00;100560.28;4978381;28;20057;-78
2021/12/20 04:32:25;;;;;;;19.67;11.77;;;;;;;-1.51;100.00;100543.53;4995654;28;20405;-78
2021/12/20 04:34:53;;;;;;;19.95;11.77;;;;;;;-1.56;100.00;100537.94;4978371;28;20058;-78
2021/12/20 04:37:21;;;;;;;17.75;10.40;;;;;;;-1.53;100.00;100553.66;4994767;28;20042;-78
2021/12/20 04:39:49;;;;;;;15.73;10.40;;;;;;;-1.50;100.00;100553.22;4995473;28;20050;-79
2021/12/20 04:42:18;;;;;;;19.17;11.02;;;;;;;-1.28;100.00;100557.66;4994692;28;20038;-79
2021/12/20 04:44:46;;;;;;;21.92;11.90;;;;;;;-1.21;100.00;100555.81;4995383;28;20408;-78
2021/12/20 04:47:14;;;;;;;22.73;12.80;;;;;;;-1.29;100.00;100547.94;4995395;28;20053;-79
2021/12/20 04:49:42;;;;;;;27.05;13.15;;;;;;;-1.46;100.00;100537.56;4978169;28;20053;-79
2021/12/20 04:52:10;;;;;;;29.80;14.80;;;;;;;-1.52;100.00;100551.81;4994106;28;20043;-79
2021/12/20 04:54:38;;;;;;;23.92;14.38;;;;;;;-1.62;100.00;100549.47;4961918;28;20420;-79
2021/12/20 04:57:06;;;;;;;22.65;13.70;;;;;;;-1.56;100.00;100559.41;4995206;28;20051;-79
2021/12/20 04:59:35;;;;;;;31.50;14.35;;;;;;;-1.27;100.00;100557.44;4995002;28;20048;-78
2021/12/20 05:02:03;;;;;;;28.25;15.60;;;;;;;-1.17;100.00;100559.75;4995264;28;20046;-79
2021/12/20 05:04:31;;;;;;;27.10;14.27;;;;;;;-1.28;100.00;100552.31;4973978;28;20045;-79
2021/12/20 05:06:59;;;;;;;27.40;16.67;;;;;;;-1.40;100.00;100558.25;4994540;28;20408;-78
2021/12/20 05:09:29;;;;;;;28.58;17.40;;;;;;;-1.93;100.00;100559.63;4961453;28;20141;-79
2021/12/20 05:12:09;;;;;;;29.15;16.50;;;;;;;-2.24;100.00;100562.72;4991123;28;20058;-78
2021/12/20 05:14:42;;;;;;;27.45;16.98;;;;;;;-2.51;100.00;100579.44;4972017;28;20039;-78
2021/12/20 05:17:13;;;;;;;25.48;16.40;;;;;;;-2.50;100.00;100586.44;4993508;28;20127;-79
2021/12/20 05:19:42;;;;;;;25.10;15.60;;;;;;;-2.58;100.00;100589.28;4977551;28;20053;-78
2021/12/20 05:22:12;;;;;;;29.45;15.95;;;;;;;-3.18;100.00;100584.13;4994082;28;20113;-78
2021/12/20 05:24:40;;;;;;;27.65;15.77;;;;;;;-3.66;100.00;100580.06;4977349;28;20078;-78
2021/12/20 05:27:08;;;;;;;26.73;15.40;;;;;;;-3.67;100.00;100581.88;4994146;28;20045;-78
2021/12/20 05:29:36;;;;;;;28.40;15.45;;;;;;;-3.46;100.00;100582.16;4994500;28;20405;-78
2021/12/20 05:32:06;;;;;;;29.67;17.13;;;;;;;-3.45;100.00;100579.28;4991187;28;20057;-78
2021/12/20 05:34:34;;;;;;;28.70;16.90;;;;;;;-3.30;100.00;100587.28;4994326;28;20557;-78
2021/12/20 05:37:03;;;;;;;27.73;16.63;;;;;;;-3.35;100.00;100572.81;4992416;28;20046;-79
2021/12/20 05:39:31;;;;;;;34.08;16.75;;;;;;;-3.34;100.00;100567.25;4982772;28;20069;-79
2021/12/20 05:41:59;;;;;;;30.90;17.88;;;;;;;-3.37;100.00;100557.75;4994024;28;20042;-79
2021/12/20 05:44:27;;;;;;;27.45;15.88;;;;;;;-3.39;100.00;100569.66;4962641;28;20046;-79
2021/12/20 05:46:55;;;;;;;29.25;17.23;;;;;;;-3.41;100.00;100580.56;4966162;28;20043;-79
2021/12/20 05:49:23;;;;;;;34.15;18.80;;;;;;;-3.44;100.00;100582.78;4994036;28;20034;-79
2021/12/20 05:51:55;;;;;;;38.22;17.52;;;;;;;-3.46;100.00;100608.91;4994189;28;20490;-79
2021/12/20 05:54:23;;;;;;;41.42;18.88;;;;;;;-3.53;100.00;100606.97;4994099;28;20039;-78
2021/12/20 05:56:51;;;;;;;41.83;19.00;;;;;;;-3.51;100.00;100609.47;4993086;28;20050;-79
2021/12/20 05:59:19;;;;;;;38.88;17.45;;;;;;;-3.52;100.00;100611.31;4970806;28;20845;-79
2021/12/20 06:01:48;;;;;;;34.20;17.65;;;;;;;-3.41;100.00;100618.03;4987167;28;20050;-79
2021/12/20 06:04:16;;;;;;;35.55;18.27;;;;;;;-3.48;100.00;100610.94;4988275;28;20505;-78
2021/12/20 06:06:44;;;;;;;34.53;17.60;;;;;;;-3.55;100.00;100614.38;4988041;28;20035;-78
2021/12/20 06:09:12;;;;;;;38.30;19.33;;;;;;;-3.58;100.00;100624.63;4975102;28;20382;-78
2021/12/20 06:11:41;;;;;;;46.63;21.50;;;;;;;-3.64;100.00;100628.84;4992434;28;20050;-79
2021/12/20 06:14:09;;;;;;;41.28;20.90;;;;;;;-3.57;100.00;100613.72;4993300;28;20401;-78
2021/12/20 06:16:37;;;;;;;36.60;17.00;;;;;;;-3.59;100.00;100625.59;4993034;28;20042;-77
2021/12/20 06:19:05;;;;;;;45.83;20.90;;;;;;;-3.51;100.00;100639.72;4993053;28;20061;-78
2021/12/20 06:21:34;;;;;;;52.97;22.00;;;;;;;-3.47;100.00;100644.72;4992949;28;20401;-77
2021/12/20 06:24:02;;;;;;;49.78;22.42;;;;;;;-3.39;100.00;100629.38;4974227;28;20393;-78
2021/12/20 06:26:30;;;;;;;52.28;21.52;;;;;;;-3.28;100.00;100644.13;4990311;28;20046;-80
2021/12/20 06:28:58;;;;;;;49.88;20.65;;;;;;;-3.20;100.00;100650.41;4961483;28;20397;-80
2021/12/20 06:31:27;;;;;;;45.58;22.75;;;;;;;-3.18;100.00;100649.19;4980290;28;20057;-79
2021/12/20 06:33:55;;;;;;;47.22;21.35;;;;;;;-3.16;100.00;100657.03;4971659;28;20046;-80
2021/12/20 06:36:26;;;;;;;52.10;22.40;;;;;;;-3.03;100.00;100651.84;4992927;28;20054;-80
2021/12/20 06:38:54;;;;;;;32.42;17.67;;;;;;;-3.05;100.00;100648.53;4992119;28;20046;-81
2021/12/20 06:41:24;;;;;;;49.50;22.25;;;;;;;-3.12;100.00;100655.66;4994194;28;20046;-81
2021/12/20 06:43:52;;;;;;;45.60;23.15;;;;;;;-3.11;100.00;100670.72;4976869;28;20064;-81
2021/12/20 06:46:21;;;;;;;51.47;21.35;;;;;;;-3.03;100.00;100667.91;4990311;28;20441;-82
2021/12/20 06:48:49;;;;;;;43.22;22.80;;;;;;;-2.98;100.00;100670.84;4993356;28;20053;-81
2021/12/20 06:51:17;;;;;;;51.30;25.25;;;;;;;-2.99;100.00;100687.09;4993807;28;20046;-81
2021/12/20 06:53:45;;;;;;;45.60;21.80;;;;;;;-3.11;100.00;100682.25;4993858;28;20484;-81
2021/12/20 06:56:13;;;;;;;46.30;21.95;;;;;;;-3.10;100.00;100699.13;4975896;28;20488;-81
2021/12/20 06:58:41;;;;;;;54.42;22.50;;;;;;;-3.10;100.00;100709.84;4993003;28;20397;-82
2021/12/20 07:01:09;;;;;;;51.38;21.08;;;;;;;-3.08;100.00;100715.84;4985071;28;20050;-81
2021/12/20 07:03:37;;;;;;;67.20;23.35;;;;;;;-3.00;100.00;100710.41;4992286;28;20062;-82
2021/12/20 07:06:05;;;;;;;49.28;21.13;;;;;;;-2.94;100.00;100697.28;4973698;28;20485;-82
2021/12/20 07:08:33;;;;;;;69.07;25.48;;;;;;;-2.85;100.00;100712.22;5000443;28;20049;-81
2021/12/20 07:11:01;;;;;;;54.58;24.95;;;;;;;-2.86;100.00;100729.31;4970865;28;20050;-82
2021/12/20 07:13:29;;;;;;;57.03;21.73;;;;;;;-2.79;100.00;100716.81;4999750;28;20616;-82
2021/12/20 07:15:57;;;;;;;51.15;24.80;;;;;;;-2.74;100.00;100727.81;4976818;28;20038;-81
2021/12/20 07:18:25;;;;;;;57.15;22.88;;;;;;;-2.72;100.00;100736.50;4992483;28;20057;-82
2021/12/20 07:20:53;;;;;;;50.03;23.90;;;;;;;-2.74;100.00;100735.84;4975137;28;20497;-81
2021/12/20 07:23:22;;;;;;;54.17;25.17;;;;;;;-2.72;100.00;100741.00;4992931;28;20816;-81
2021/12/20 07:25:51;;;;;;;61.67;24.88;;;;;;;-2.67;100.00;100745.81;4982264;28;20335;-81
2021/12/20 07:28:19;;;;;;;70.53;28.38;;;;;;;-2.53;100.00;100752.16;4993248;28;20062;-82
2021/12/20 07:30:48;;;;;;;71.03;28.88;;;;;;;-2.53;100.00;100752.16;4988770;28;20048;-81
2021/12/20 07:33:31;;;;;;;69.25;27.00;;;;;;;-2.53;100.00;100758.34;5001447;28;20065;-81
2021/12/20 07:35:59;;;;;;;78.20;29.70;;;;;;;-2.57;100.00;100749.88;4985369;28;20054;-80
2021/12/20 07:38:28;;;;;;;68.57;28.33;;;;;;;-2.52;100.00;100753.81;4998579;28;20050;-80
2021/12/20 07:40:57;;;;;;;65.30;27.60;;;;;;;-2.60;100.00;100752.91;4978599;28;20057;-79
2021/12/20 07:43:26;;;;;;;61.22;25.13;;;;;;;-2.55;100.00;100763.06;4996363;28;20405;-79
2021/12/20 07:45:54;;;;;;;68.13;26.60;;;;;;;-2.67;100.00;100775.28;4999126;28;20393;-80
2021/12/20 07:48:23;;;;;;;64.57;25.85;;;;;;;-2.58;100.00;100771.50;4975660;28;20406;-81
2021/12/20 07:50:51;;;;;;;61.17;25.67;;;;;;;-2.42;100.00;100775.78;4993117;28;20050;-82
2021/12/20 07:53:19;;;;;;;68.47;28.63;;;;;;;-2.27;100.00;100772.22;4970226;28;20082;-83
2021/12/20 07:55:47;;;;;;;60.13;27.50;;;;;;;-2.16;100.00;100783.28;4992043;28;20046;-82
2021/12/20 07:58:15;;;;;;;63.55;28.27;;;;;;;-2.04;100.00;100799.69;4977108;28;20042;-81
2021/12/20 08:00:44;;;;;;;61.55;27.42;;;;;;;-2.02;100.00;100802.19;5000549;28;20042;-81
2021/12/20 08:03:12;;;;;;;64.60;26.77;;;;;;;-2.03;100.00;100790.66;4996039;28;20046;-81
2021/12/20 08:05:41;;;;;;;57.08;26.60;;;;;;;-1.90;100.00;100803.34;4994616;28;20046;-82
2021/12/20 08:08:11;;;;;;;58.53;26.52;;;;;;;-1.88;100.00;100819.25;4977785;28;20511;-82
2021/12/20 08:10:39;;;;;;;57.88;25.60;;;;;;;-1.78;100.00;100808.22;4993817;28;20047;-83
2021/12/20 08:13:09;;;;;;;64.95;29.05;;;;;;;-1.73;100.00;100815.66;4976610;28;20054;-82
2021/12/20 08:15:37;;;;;;;50.63;26.05;;;;;;;-1.51;100.00;100827.25;4995109;28;20416;-83
2021/12/20 08:18:06;;;;;;;55.53;26.17;;;;;;;-1.57;100.00;100817.28;4993091;28;20046;-82
2021/12/20 08:20:34;;;;;;;55.28;26.45;;;;;;;-1.52;100.00;100823.72;4994891;28;20374;-82
2021/12/20 08:23:03;;;;;;;57.47;28.38;;;;;;;-1.39;100.00;100819.47;4966075;28;20050;-81
2021/12/20 08:25:32;;;;;;;57.38;26.60;;;;;;;-1.30;100.00;100830.91;4994930;28;20401;-82
2021/12/20 08:28:00;;;;;;;50.60;23.58;;;;;;;-1.25;100.00;100847.28;4978254;28;20046;-82
2021/12/20 08:30:27;;;;;;;48.10;25.35;;;;;;;-1.24;100.00;100847.09;4995577;28;20413;-84
2021/12/20 08:32:56;;;;;;;50.33;26.38;;;;;;;-1.16;100.00;100837.22;4995306;28;20066;-83
2021/12/20 08:35:24;;;;;;;48.63;24.95;;;;;;;-1.09;100.00;100854.22;4991322;28;20043;-84
2021/12/20 08:37:53;;;;;;;42.92;23.92;;;;;;;-0.86;100.00;100862.03;4970756;28;20398;-83
2021/12/20 08:40:22;;;;;;;50.75;24.98;;;;;;;-0.65;100.00;100854.91;4989418;28;20053;-83
2021/12/20 08:42:50;;;;;;;46.75;25.08;;;;;;;-0.62;100.00;100859.91;4982844;28;20054;-82
2021/12/20 08:45:19;;;;;;;45.25;23.63;;;;;;;-0.39;100.00;100868.69;4989822;28;20409;-83
2021/12/20 08:47:52;;;;;;;46.45;23.00;;;;;;;-0.22;100.00;100861.09;4986200;28;20404;-82
2021/12/20 08:50:23;;;;;;;41.63;22.55;;;;;;;-0.11;100.00;100865.91;4986785;28;20069;-81
2021/12/20 08:52:51;;;;;;;43.88;23.08;;;;;;;0.12;100.00;100872.81;4958215;28;20034;-82
2021/12/20 08:55:20;;;;;;;47.15;23.65;;;;;;;0.09;100.00;100892.88;4994511;28;20042;-80
2021/12/20 08:57:49;;;;;;;41.83;21.95;;;;;;;-0.18;100.00;100906.25;4976485;28;20043;-81
2021/12/20 09:00:27;;;;;;;47.38;22.58;;;;;;;0.11;100.00;100911.53;4991652;28;20057;-82
2021/12/20 09:02:58;;;;;;;39.53;20.75;;;;;;;0.19;100.00;100911.34;4994052;28;20042;-81
2021/12/20 09:05:28;;;;;;;50.90;23.83;;;;;;;0.51;100.00;100922.41;4994049;28;20419;-81
2021/12/20 09:07:57;;;;;;;53.25;25.13;;;;;;;0.34;100.00;100921.94;4993273;28;20042;-77
2021/12/20 09:10:26;;;;;;;40.40;21.65;;;;;;;0.45;100.00;100917.84;4991176;28;20051;-79
2021/12/20 09:12:54;;;;;;;44.90;22.95;;;;;;;0.25;100.00;100925.84;4967406;28;20062;-80
2021/12/20 09:15:22;;;;;;;40.40;22.15;;;;;;;0.49;100.00;100943.31;4989300;28;20051;-81
2021/12/20 09:17:52;;;;;;;43.38;22.75;;;;;;;0.60;100.00;100939.22;4993372;28;20049;-78
2021/12/20 09:20:23;;;;;;;44.13;22.95;;;;;;;0.53;100.00;100931.09;4976153;28;20050;-79
2021/12/20 09:22:53;;;;;;;39.03;22.13;;;;;;;0.57;100.00;100938.75;4993074;28;20042;-79
2021/12/20 09:25:25;;;;;;;44.63;23.50;;;;;;;0.64;100.00;100939.63;4992900;28;20054;-77
2021/12/20 09:27:56;;;;;;;43.60;24.60;;;;;;;0.75;100.00;100949.78;4965133;28;20051;-76
2021/12/20 09:30:26;;;;;;;50.38;23.05;;;;;;;0.82;100.00;100957.06;4984433;28;20062;-78
2021/12/20 09:32:59;;;;;;;49.03;26.10;;;;;;;1.01;100.00;100952.69;4993559;28;20523;-78
2021/12/20 09:35:27;;;;;;;46.17;25.08;;;;;;;0.98;100.00;100955.81;4964432;28;20051;-79
2021/12/20 09:37:55;;;;;;;47.75;25.70;;;;;;;1.11;100.00;100968.47;4989722;28;20073;-78
2021/12/20 09:40:36;;;;;;;49.80;26.40;;;;;;;1.20;100.00;100975.31;4992927;28;20054;-77
2021/12/20 09:43:08;;;;;;;53.05;26.13;;;;;;;1.28;100.00;100975.09;4965657;28;20402;-76
2021/12/20 09:45:37;;;;;;;50.97;26.63;;;;;;;1.33;100.00;100966.41;4959935;28;20047;-76
2021/12/20 09:48:05;;;;;;;51.15;24.55;;;;;;;1.63;100.00;100968.63;4993636;28;20054;-77
2021/12/20 09:50:34;;;;;;;44.80;25.20;;;;;;;1.80;100.00;100970.91;4994107;28;20065;-80
2021/12/20 09:53:07;;;;;;;52.50;26.30;;;;;;;2.00;100.00;100978.91;4991052;28;20068;-79
2021/12/20 09:55:37;;;;;;;49.75;25.58;;;;;;;2.13;100.00;100984.28;4992572;28;20494;-84
2021/12/20 09:58:06;;;;;;;44.33;24.38;;;;;;;2.17;100.00;100987.38;4985433;28;20053;-83
2021/12/20 10:00:34;;;;;;;49.88;22.52;;;;;;;2.34;100.00;100990.41;4965540;28;20432;-81
2021/12/20 10:03:03;;;;;;;37.33;21.15;;;;;;;2.48;100.00;100996.59;4984713;28;20489;-81
2021/12/20 10:05:34;;;;;;;39.22;20.67;;;;;;;2.24;99.73;100990.88;4969580;28;20053;-81
2021/12/20 10:08:20;;;;;;;40.92;20.58;;;;;;;2.35;99.82;100996.66;4970172;28;20776;-81
2021/12/20 10:10:49;;;;;;;40.38;20.67;;;;;;;2.21;100.00;101007.53;4989670;28;20049;-80
2021/12/20 10:13:31;;;;;;;40.35;22.25;;;;;;;2.16;100.00;100999.22;4988342;28;20058;-79
2021/12/20 10:16:02;;;;;;;42.88;22.25;;;;;;;1.86;100.00;101003.25;4986131;28;20054;-80
2021/12/20 10:18:34;;;;;;;40.83;22.52;;;;;;;2.07;100.00;100998.63;4982411;28;20096;-81
2021/12/20 10:21:02;;;;;;;46.67;22.27;;;;;;;2.26;100.00;100996.88;4985779;28;20074;-81
2021/12/20 10:23:33;;;;;;;44.72;21.63;;;;;;;2.49;99.40;100992.03;4964351;28;20042;-81
2021/12/20 10:26:09;;;;;;;39.17;20.98;;;;;;;2.83;97.85;101000.75;4985529;28;20058;-81
2021/12/20 10:28:37;;;;;;;37.95;21.10;;;;;;;2.72;98.56;100996.03;4988149;28;20049;-80
2021/12/20 10:31:09;;;;;;;35.80;19.30;;;;;;;2.68;97.78;101004.59;4986791;28;20075;-81
2021/12/20 10:33:38;;;;;;;31.58;18.05;;;;;;;2.77;98.24;100991.66;4989270;28;20477;-80
2021/12/20 10:36:15;;;;;;;34.80;16.95;;;;;;;3.10;98.45;100995.19;4985175;28;20046;-80
2021/12/20 10:38:56;;;;;;;32.67;17.35;;;;;;;3.53;96.21;100998.16;4987139;28;20416;-80
2021/12/20 10:41:33;;;;;;;27.60;15.43;;;;;;;3.72;95.97;100993.63;4984712;28;20054;-80
2021/12/20 10:44:20;;;;;;;29.63;14.77;;;;;;;3.69;96.91;100997.59;4961233;28;20055;-80
2021/12/20 10:46:54;;;;;;;27.42;14.80;;;;;;;3.73;97.80;100989.84;4967923;28;20474;-80
2021/12/20 10:49:30;;;;;;;38.80;19.80;;;;;;;4.20;94.17;100988.50;4963522;28;20054;-81
2021/12/20 10:51:59;;;;;;;35.60;18.77;;;;;;;4.23;94.82;100988.03;4967427;28;20058;-80
2021/12/20 10:54:31;;;;;;;35.60;19.23;;;;;;;4.43;90.97;100990.50;4966951;28;20051;-81
2021/12/20 10:57:05;;;;;;;33.08;17.85;;;;;;;4.63;91.38;101000.25;4971071;28;20062;-81
2021/12/20 10:59:36;;;;;;;35.35;19.30;;;;;;;4.52;89.45;100994.56;4973711;28;20045;-80
2021/12/20 11:05:01;;;;;;;45.88;24.48;;;;;;;4.29;90.46;101001.53;4971860;28;20043;-80
2021/12/20 11:10:07;;;;;;;44.47;25.38;;;;;;;3.76;92.02;101001.06;4956373;28;20486;-79
2021/12/20 11:12:35;;;;;;;51.60;24.45;;;;;;;3.92;92.33;101001.53;4968710;28;20055;-80
2021/12/20 11:15:08;;;;;;;41.78;23.83;;;;;;;4.07;90.92;101003.03;4973310;28;20412;-80
2021/12/20 11:17:42;;;;;;;46.40;24.27;;;;;;;4.01;91.97;101004.78;4967720;28;20382;-80
2021/12/20 11:20:17;;;;;;;44.97;24.27;;;;;;;4.13;91.80;101004.84;4973493;28;20486;-80
2021/12/20 11:22:45;;;;;;;50.20;25.17;;;;;;;4.28;92.33;100996.31;4982963;28;20049;-80
2021/12/20 11:25:15;;;;;;;47.42;24.98;;;;;;;4.20;91.29;101005.56;4971766;28;20059;-80
2021/12/20 11:27:53;;;;;;;50.40;26.67;;;;;;;4.49;90.55;101003.13;4952968;29;20044;-80
2021/12/20 11:30:24;;;;;;;45.53;25.42;;;;;;;4.67;88.11;101004.16;4969393;28;20378;-80